Time;durP1;ratioP1;P1;durP2;ratioP2;P2;SDS_P1;SDS_P2;PMS_P1;PMS_P2;Temp;Humidity;BMP_temperature;BMP_pressure;BME280_temperature;BME280_humidity;BME280_pressure;Samples;Min_cycle;Max_cycle;Signal;HPM_P1;HPM_P2
2022/11/14 00:00:23;;;;;;;45.42;26.73;;;;;;;;;;5006751;28;20619;-75
2022/11/14 00:02:52;;;;;;;45.50;28.42;;;;;;;;;;4996290;28;20033;-77
2022/11/14 00:05:18;;;;;;;44.55;27.98;;;;;;;;;;5011622;28;20069;-75
2022/11/14 00:07:44;;;;;;;49.05;29.30;;;;;;;;;;4985530;28;20026;-75
2022/11/14 00:10:11;;;;;;;49.33;28.77;;;;;;;;;;4998005;28;20038;-77
2022/11/14 00:12:37;;;;;;;46.55;28.40;;;;;;;;;;4990939;28;20097;-76
2022/11/14 00:15:03;;;;;;;49.60;27.05;;;;;;;;;;4978482;28;20037;-78
2022/11/14 00:17:32;;;;;;;48.70;28.45;;;;;;;;;;4985833;28;20054;-77
2022/11/14 00:19:58;;;;;;;45.97;26.77;;;;;;;;;;4985603;28;20022;-77
2022/11/14 00:22:24;;;;;;;40.92;27.08;;;;;;;;;;4997107;28;20030;-77
2022/11/14 00:24:50;;;;;;;45.65;27.77;;;;;;;;;;5008291;28;20018;-76
2022/11/14 00:27:16;;;;;;;46.20;26.50;;;;;;;;;;4997378;28;20026;-78
2022/11/14 00:29:42;;;;;;;45.67;26.65;;;;;;;;;;5009323;28;20049;-77
2022/11/14 00:32:08;;;;;;;41.70;25.50;;;;;;;;;;5013305;28;20418;-77
2022/11/14 00:34:34;;;;;;;43.42;26.92;;;;;;;;;;4997346;28;20084;-77
2022/11/14 00:37:00;;;;;;;40.20;26.33;;;;;;;;;;5009552;28;20030;-76
2022/11/14 00:39:26;;;;;;;40.53;25.50;;;;;;;;;;5018047;28;20029;-76
2022/11/14 00:41:52;;;;;;;39.75;25.27;;;;;;;;;;5020677;28;20100;-76
2022/11/14 00:44:18;;;;;;;40.08;24.73;;;;;;;;;;5025545;28;20044;-76
2022/11/14 00:46:44;;;;;;;35.42;22.90;;;;;;;;;;4997026;28;20480;-75
2022/11/14 00:49:10;;;;;;;32.83;22.50;;;;;;;;;;5025776;28;20038;-76
2022/11/14 00:51:37;;;;;;;36.83;22.23;;;;;;;;;;5011546;28;20026;-76
2022/11/14 00:54:03;;;;;;;36.33;22.67;;;;;;;;;;5023277;28;20036;-76
2022/11/14 00:56:29;;;;;;;36.10;24.30;;;;;;;;;;4997953;28;20022;-77
2022/11/14 00:58:55;;;;;;;35.13;22.30;;;;;;;;;;5026833;28;20458;-76
2022/11/14 01:01:21;;;;;;;37.10;22.95;;;;;;;;;;5017535;28;20030;-77
2022/11/14 01:03:48;;;;;;;38.10;23.85;;;;;;;;;;5013066;28;20498;-77
2022/11/14 01:06:15;;;;;;;31.52;20.98;;;;;;;;;;5017638;28;20030;-76
2022/11/14 01:08:41;;;;;;;38.35;24.02;;;;;;;;;;5027022;28;20018;-77
2022/11/14 01:11:12;;;;;;;35.78;21.90;;;;;;;;;;5015981;28;20084;-79
2022/11/14 01:13:38;;;;;;;38.05;22.40;;;;;;;;;;5024430;28;20528;-76
2022/11/14 01:16:05;;;;;;;36.33;22.38;;;;;;;;;;5026991;28;20037;-75
2022/11/14 01:18:31;;;;;;;34.42;22.00;;;;;;;;;;5018116;28;20464;-75
2022/11/14 01:20:57;;;;;;;36.10;23.45;;;;;;;;;;5017879;28;20097;-75
2022/11/14 01:23:23;;;;;;;36.38;22.02;;;;;;;;;;5027732;28;20025;-75
2022/11/14 01:25:49;;;;;;;36.40;23.80;;;;;;;;;;5024984;28;20079;-77
2022/11/14 01:28:17;;;;;;;37.08;22.90;;;;;;;;;;5020334;28;20558;-77
2022/11/14 01:30:43;;;;;;;36.42;24.35;;;;;;;;;;5013475;28;20021;-76
2022/11/14 01:33:09;;;;;;;36.20;22.88;;;;;;;;;;5019608;28;20064;-76
2022/11/14 01:35:38;;;;;;;37.47;22.77;;;;;;;;;;5026396;28;20053;-76
2022/11/14 01:38:05;;;;;;;34.20;21.98;;;;;;;;;;5026126;28;20108;-75
2022/11/14 01:40:31;;;;;;;37.50;21.48;;;;;;;;;;5001033;28;20026;-76
2022/11/14 01:43:16;;;;;;;35.40;22.48;;;;;;;;;;5031464;28;20479;-76
2022/11/14 01:45:51;;;;;;;32.78;20.75;;;;;;;;;;5023528;28;20498;-76
2022/11/14 01:48:23;;;;;;;32.08;21.60;;;;;;;;;;5019755;28;20527;-75
2022/11/14 01:50:53;;;;;;;38.80;22.38;;;;;;;;;;5031119;28;20076;-77
2022/11/14 01:53:19;;;;;;;36.70;22.13;;;;;;;;;;5020927;28;20460;-77
2022/11/14 01:55:45;;;;;;;35.53;23.33;;;;;;;;;;5025421;28;20472;-76
2022/11/14 01:58:11;;;;;;;31.98;20.80;;;;;;;;;;5027229;28;20468;-76
2022/11/14 02:00:37;;;;;;;32.50;21.60;;;;;;;;;;5018105;28;20022;-76
2022/11/14 02:03:03;;;;;;;36.00;22.70;;;;;;;;;;5029489;28;20025;-77
2022/11/14 02:05:30;;;;;;;36.28;21.02;;;;;;;;;;5026734;28;20032;-77
2022/11/14 02:07:56;;;;;;;35.47;22.23;;;;;;;;;;5024651;28;20028;-77
2022/11/14 02:10:22;;;;;;;31.77;21.00;;;;;;;;;;5019298;28;20459;-77
2022/11/14 02:12:49;;;;;;;29.95;20.40;;;;;;;;;;5012491;28;20121;-77
2022/11/14 02:15:15;;;;;;;30.30;20.63;;;;;;;;;;5002150;28;20029;-76
2022/11/14 02:17:44;;;;;;;36.17;21.17;;;;;;;;;;5006334;28;20318;-77
2022/11/14 02:20:13;;;;;;;33.83;21.00;;;;;;;;;;5009172;28;20038;-76
2022/11/14 02:22:40;;;;;;;34.10;20.95;;;;;;;;;;5032797;28;20025;-77
2022/11/14 02:25:07;;;;;;;36.22;21.67;;;;;;;;;;5018014;28;20029;-75
2022/11/14 02:27:34;;;;;;;33.80;22.60;;;;;;;;;;5007152;28;20026;-76
2022/11/14 02:30:05;;;;;;;31.02;21.08;;;;;;;;;;4977959;28;20045;-77
2022/11/14 02:32:31;;;;;;;34.55;20.73;;;;;;;;;;4992072;28;20036;-76
2022/11/14 02:34:57;;;;;;;32.85;22.52;;;;;;;;;;4992995;28;20036;-77
2022/11/14 02:37:23;;;;;;;35.55;22.90;;;;;;;;;;4999950;28;20395;-77
2022/11/14 02:39:49;;;;;;;32.13;20.75;;;;;;;;;;5004038;28;20030;-77
2022/11/14 02:42:15;;;;;;;35.45;22.23;;;;;;;;;;5008378;28;20405;-76
2022/11/14 02:44:41;;;;;;;37.25;21.65;;;;;;;;;;4985195;28;20473;-77
2022/11/14 02:47:07;;;;;;;32.40;20.63;;;;;;;;;;5016905;28;20038;-75
2022/11/14 02:49:33;;;;;;;34.83;22.55;;;;;;;;;;4991515;28;20045;-78
2022/11/14 02:51:59;;;;;;;29.73;20.67;;;;;;;;;;4993554;28;20038;-78
2022/11/14 02:54:25;;;;;;;33.15;21.38;;;;;;;;;;4996645;28;20029;-78
2022/11/14 02:56:51;;;;;;;31.92;21.20;;;;;;;;;;5011743;28;20030;-79
2022/11/14 02:59:17;;;;;;;35.10;22.90;;;;;;;;;;5012816;28;20399;-78
2022/11/14 03:01:43;;;;;;;31.95;20.38;;;;;;;;;;4986385;28;20027;-77
2022/11/14 03:04:12;;;;;;;33.65;22.02;;;;;;;;;;4976067;28;20591;-78
2022/11/14 03:06:38;;;;;;;33.80;22.52;;;;;;;;;;5008104;28;20504;-78
2022/11/14 03:09:07;;;;;;;31.00;20.30;;;;;;;;;;4996829;28;20101;-78
2022/11/14 03:11:33;;;;;;;30.40;19.67;;;;;;;;;;5005423;28;20110;-78
2022/11/14 03:13:59;;;;;;;36.90;21.55;;;;;;;;;;4987829;28;20022;-78
2022/11/14 03:16:28;;;;;;;32.97;21.20;;;;;;;;;;4998241;28;20092;-77
2022/11/14 03:18:57;;;;;;;34.45;21.10;;;;;;;;;;4990906;28;20026;-78
2022/11/14 03:21:26;;;;;;;33.42;21.38;;;;;;;;;;4982430;28;20029;-79
2022/11/14 03:23:52;;;;;;;33.33;21.48;;;;;;;;;;4984689;28;20390;-78
2022/11/14 03:26:20;;;;;;;32.88;19.98;;;;;;;;;;4989480;28;20084;-77
2022/11/14 03:28:46;;;;;;;28.02;20.25;;;;;;;;;;5004496;28;20025;-76
2022/11/14 03:31:13;;;;;;;31.77;19.70;;;;;;;;;;5026642;28;20034;-76
2022/11/14 03:33:39;;;;;;;28.92;19.85;;;;;;;;;;5021532;28;20562;-75
2022/11/14 03:36:05;;;;;;;31.50;20.00;;;;;;;;;;5001886;28;20030;-78
2022/11/14 03:38:32;;;;;;;27.50;19.70;;;;;;;;;;5010340;28;20033;-76
2022/11/14 03:40:58;;;;;;;29.63;18.92;;;;;;;;;;4997555;28;20037;-77
2022/11/14 03:43:25;;;;;;;30.45;19.27;;;;;;;;;;5025775;28;20044;-76
2022/11/14 03:45:53;;;;;;;26.65;18.48;;;;;;;;;;5022705;28;20025;-78
2022/11/14 03:48:19;;;;;;;27.92;19.10;;;;;;;;;;4999504;28;20353;-78
2022/11/14 03:50:48;;;;;;;26.27;18.33;;;;;;;;;;5028637;28;20108;-78
2022/11/14 03:53:14;;;;;;;30.65;20.02;;;;;;;;;;5000086;28;20087;-75
2022/11/14 03:55:42;;;;;;;29.40;20.02;;;;;;;;;;5005702;28;20026;-76
2022/11/14 03:58:08;;;;;;;29.48;20.17;;;;;;;;;;5025120;28;20036;-76
2022/11/14 04:00:34;;;;;;;26.45;18.65;;;;;;;;;;5013879;28;20025;-79
2022/11/14 04:03:00;;;;;;;29.98;19.17;;;;;;;;;;5003634;28;20029;-76
2022/11/14 04:05:26;;;;;;;28.88;19.48;;;;;;;;;;5007117;28;20032;-76
2022/11/14 04:07:52;;;;;;;30.05;19.65;;;;;;;;;;5004131;28;20026;-76
2022/11/14 04:10:18;;;;;;;29.02;19.45;;;;;;;;;;5000187;28;20079;-76
2022/11/14 04:12:51;;;;;;;30.95;19.80;;;;;;;;;;5029798;28;20091;-75
2022/11/14 04:15:18;;;;;;;30.27;19.83;;;;;;;;;;5025459;28;20033;-76
2022/11/14 04:17:45;;;;;;;28.27;19.17;;;;;;;;;;5004051;28;20067;-78
2022/11/14 04:20:11;;;;;;;27.60;20.05;;;;;;;;;;5018482;28;20033;-77
2022/11/14 04:22:37;;;;;;;29.27;19.30;;;;;;;;;;5028569;28;20053;-75
2022/11/14 04:25:04;;;;;;;31.67;19.30;;;;;;;;;;5022644;28;20056;-77
2022/11/14 04:27:30;;;;;;;30.08;19.33;;;;;;;;;;5030356;28;20026;-77
2022/11/14 04:29:58;;;;;;;32.25;19.15;;;;;;;;;;5030737;28;20060;-79
2022/11/14 04:32:24;;;;;;;27.70;19.25;;;;;;;;;;5019508;28;20017;-77
2022/11/14 04:34:52;;;;;;;26.27;18.98;;;;;;;;;;5029171;28;20021;-77
2022/11/14 04:37:18;;;;;;;29.05;18.85;;;;;;;;;;5010008;28;20022;-77
2022/11/14 04:39:44;;;;;;;29.60;19.85;;;;;;;;;;5007833;28;20408;-78
2022/11/14 04:42:10;;;;;;;28.50;19.45;;;;;;;;;;5024759;28;20044;-79
2022/11/14 04:44:39;;;;;;;31.83;19.10;;;;;;;;;;5013818;28;20022;-78
2022/11/14 04:47:08;;;;;;;29.63;19.50;;;;;;;;;;5013227;28;20026;-78
2022/11/14 04:49:34;;;;;;;27.70;18.67;;;;;;;;;;5022702;28;20018;-78
2022/11/14 04:52:00;;;;;;;31.63;19.50;;;;;;;;;;5005347;28;20033;-77
2022/11/14 04:54:26;;;;;;;27.98;19.10;;;;;;;;;;5015819;28;20030;-78
2022/11/14 04:56:52;;;;;;;31.48;20.13;;;;;;;;;;5009679;28;20124;-77
2022/11/14 04:59:21;;;;;;;30.73;19.95;;;;;;;;;;4993148;28;20026;-77
2022/11/14 05:01:47;;;;;;;27.83;19.25;;;;;;;;;;5021511;28;20022;-78
2022/11/14 05:04:13;;;;;;;32.38;20.92;;;;;;;;;;5025971;28;20018;-77
2022/11/14 05:06:40;;;;;;;31.05;18.95;;;;;;;;;;5014568;28;20037;-78
2022/11/14 05:09:06;;;;;;;27.75;19.85;;;;;;;;;;5008031;28;20034;-77
2022/11/14 05:11:34;;;;;;;30.08;20.15;;;;;;;;;;5011283;28;20036;-77
2022/11/14 05:14:03;;;;;;;31.65;20.02;;;;;;;;;;5005398;28;20026;-78
2022/11/14 05:16:29;;;;;;;28.70;20.35;;;;;;;;;;4997672;28;20057;-78
2022/11/14 05:18:55;;;;;;;29.95;19.60;;;;;;;;;;5026601;28;20030;-77
2022/11/14 05:21:21;;;;;;;31.52;19.52;;;;;;;;;;5017568;28;20031;-77
2022/11/14 05:23:47;;;;;;;31.98;20.45;;;;;;;;;;5020869;28;20022;-76
2022/11/14 05:26:15;;;;;;;28.33;19.35;;;;;;;;;;5024708;28;20026;-76
2022/11/14 05:28:41;;;;;;;30.27;20.77;;;;;;;;;;5029478;28;20026;-79
2022/11/14 05:31:11;;;;;;;32.60;21.40;;;;;;;;;;4998196;28;20519;-79
2022/11/14 05:33:37;;;;;;;31.75;20.10;;;;;;;;;;5004560;28;20120;-77
2022/11/14 05:36:03;;;;;;;28.63;20.42;;;;;;;;;;5022747;28;20018;-77
2022/11/14 05:38:29;;;;;;;30.35;20.98;;;;;;;;;;5014048;28;20033;-78
2022/11/14 05:40:55;;;;;;;31.85;20.80;;;;;;;;;;5009661;28;20058;-77
2022/11/14 05:43:21;;;;;;;31.05;21.77;;;;;;;;;;4997733;28;20488;-80
2022/11/14 05:45:47;;;;;;;30.15;20.23;;;;;;;;;;5016864;28;20026;-76
2022/11/14 05:48:13;;;;;;;32.63;21.33;;;;;;;;;;5015021;28;20494;-75
2022/11/14 05:50:39;;;;;;;29.77;20.88;;;;;;;;;;4995142;28;20397;-76
2022/11/14 05:53:06;;;;;;;32.55;21.15;;;;;;;;;;5025820;28;20032;-75
2022/11/14 05:55:32;;;;;;;33.28;21.17;;;;;;;;;;5001253;28;20034;-77
2022/11/14 05:57:58;;;;;;;36.03;20.90;;;;;;;;;;5026327;28;20099;-74
2022/11/14 06:00:25;;;;;;;36.05;20.45;;;;;;;;;;5028025;28;20047;-76
2022/11/14 06:02:54;;;;;;;34.78;21.92;;;;;;;;;;5027238;28;20033;-75
2022/11/14 06:05:21;;;;;;;31.63;21.77;;;;;;;;;;5027416;28;20018;-76
2022/11/14 06:07:47;;;;;;;30.63;21.02;;;;;;;;;;5005104;28;20106;-75
2022/11/14 06:10:13;;;;;;;38.95;23.35;;;;;;;;;;5020077;28;20018;-75
2022/11/14 06:12:40;;;;;;;33.55;23.02;;;;;;;;;;5030076;28;20026;-76
2022/11/14 06:15:06;;;;;;;37.83;22.80;;;;;;;;;;5013775;28;20440;-76
2022/11/14 06:17:32;;;;;;;34.22;23.23;;;;;;;;;;5012976;28;20459;-76
2022/11/14 06:19:58;;;;;;;38.72;23.02;;;;;;;;;;5024637;28;20053;-77
2022/11/14 06:22:24;;;;;;;36.15;24.27;;;;;;;;;;5031922;28;20094;-77
2022/11/14 06:24:50;;;;;;;35.65;23.60;;;;;;;;;;5029714;28;20033;-77
2022/11/14 06:27:16;;;;;;;35.25;23.63;;;;;;;;;;5018740;28;20040;-77
2022/11/14 06:29:42;;;;;;;36.60;24.15;;;;;;;;;;5022886;28;20100;-77
2022/11/14 06:32:08;;;;;;;38.92;24.90;;;;;;;;;;5024488;28;20030;-77
2022/11/14 06:34:34;;;;;;;37.72;23.42;;;;;;;;;;5014798;28;20037;-79
2022/11/14 06:37:00;;;;;;;41.10;25.05;;;;;;;;;;5027931;28;20067;-77
2022/11/14 06:39:26;;;;;;;36.17;24.05;;;;;;;;;;5000487;28;20026;-78
2022/11/14 06:41:52;;;;;;;34.53;24.23;;;;;;;;;;5031188;28;20017;-77
2022/11/14 06:44:18;;;;;;;34.53;22.75;;;;;;;;;;5018084;28;20025;-77
2022/11/14 06:46:44;;;;;;;36.30;24.33;;;;;;;;;;5012504;28;20566;-77
2022/11/14 06:49:09;;;;;;;38.92;23.20;;;;;;;;;;5016849;28;20185;-77
2022/11/14 06:51:36;;;;;;;36.20;24.60;;;;;;;;;;5024555;28;20041;-76
2022/11/14 06:54:02;;;;;;;36.20;24.48;;;;;;;;;;5025123;28;20559;-77
2022/11/14 06:56:28;;;;;;;33.95;22.83;;;;;;;;;;5017396;28;20069;-76
2022/11/14 06:58:54;;;;;;;34.78;22.83;;;;;;;;;;5028654;28;20357;-77
2022/11/14 07:01:21;;;;;;;32.47;22.33;;;;;;;;;;5019215;28;20091;-77
2022/11/14 07:03:48;;;;;;;36.53;23.70;;;;;;;;;;5014643;28;20026;-77
2022/11/14 07:06:17;;;;;;;31.65;22.02;;;;;;;;;;5019068;28;20498;-77
2022/11/14 07:08:43;;;;;;;34.50;22.73;;;;;;;;;;5028431;28;20456;-77
2022/11/14 07:11:11;;;;;;;32.15;21.80;;;;;;;;;;5016874;28;20022;-77
2022/11/14 07:13:37;;;;;;;33.72;21.95;;;;;;;;;;5024160;28;20018;-76
2022/11/14 07:16:03;;;;;;;31.63;21.85;;;;;;;;;;5024649;28;20056;-77
2022/11/14 07:18:30;;;;;;;32.88;22.90;;;;;;;;;;4998097;28;20064;-76
2022/11/14 07:21:00;;;;;;;34.30;22.52;;;;;;;;;;5028899;28;20018;-76
2022/11/14 07:23:26;;;;;;;33.53;23.20;;;;;;;;;;5019804;28;20056;-76
2022/11/14 07:25:52;;;;;;;30.85;21.55;;;;;;;;;;5021822;28;20037;-75
2022/11/14 07:28:18;;;;;;;33.25;22.75;;;;;;;;;;5026119;28;20026;-76
2022/11/14 07:30:44;;;;;;;32.60;22.13;;;;;;;;;;4997992;28;20030;-77
2022/11/14 07:33:10;;;;;;;30.17;21.30;;;;;;;;;;5026784;28;20139;-77
2022/11/14 07:35:38;;;;;;;32.10;21.73;;;;;;;;;;5020629;28;20017;-77
2022/11/14 07:38:05;;;;;;;31.92;21.02;;;;;;;;;;5019005;28;20101;-77
2022/11/14 07:40:33;;;;;;;33.75;22.38;;;;;;;;;;5028603;28;20040;-75
2022/11/14 07:43:00;;;;;;;30.48;22.05;;;;;;;;;;5028546;28;20026;-71
2022/11/14 07:45:26;;;;;;;32.28;22.20;;;;;;;;;;5018905;28;20567;-73
2022/11/14 07:47:56;;;;;;;28.50;21.25;;;;;;;;;;5020058;28;20026;-74
2022/11/14 07:50:22;;;;;;;28.95;20.80;;;;;;;;;;5026413;28;20018;-74
2022/11/14 07:52:52;;;;;;;28.17;20.25;;;;;;;;;;4997581;28;20237;-73
2022/11/14 07:55:18;;;;;;;29.15;20.58;;;;;;;;;;5025209;28;20030;-69
2022/11/14 07:58:17;;;;;;;;;;;;;;;;;;;;;
2022/11/14 08:00:46;;;;;;;29.50;20.30;;;;;;;;;;5010072;28;20133;-78
2022/11/14 08:03:20;;;;;;;30.05;20.05;;;;;;;;;;5015294;28;20021;-79
2022/11/14 08:05:49;;;;;;;28.13;20.20;;;;;;;;;;5030713;28;20028;-79
2022/11/14 08:08:31;;;;;;;27.98;19.83;;;;;;;;;;5019299;28;20056;-79
2022/11/14 08:10:58;;;;;;;25.70;18.67;;;;;;;;;;5011657;28;20033;-80
2022/11/14 08:13:24;;;;;;;27.67;21.02;;;;;;;;;;5019364;28;20025;-79
2022/11/14 08:19:02;;;;;;;28.15;19.55;;;;;;;;;;5018867;28;20026;-80
2022/11/14 08:21:35;;;;;;;28.15;19.50;;;;;;;;;;5005720;28;20381;-80
2022/11/14 08:24:03;;;;;;;25.48;19.85;;;;;;;;;;5018062;28;20030;-81
2022/11/14 08:26:55;;;;;;;25.45;18.38;;;;;;;;;;4997559;28;20026;-78
2022/11/14 08:29:22;;;;;;;28.85;19.30;;;;;;;;;;5019879;28;20029;-79
2022/11/14 08:31:50;;;;;;;31.60;20.92;;;;;;;;;;5005027;28;20513;-83
2022/11/14 08:34:16;;;;;;;26.63;18.38;;;;;;;;;;5028526;28;20380;-80
2022/11/14 08:36:42;;;;;;;27.88;19.45;;;;;;;;;;5018888;28;20415;-81
2022/11/14 08:39:11;;;;;;;28.38;20.02;;;;;;;;;;5029355;28;20026;-81
2022/11/14 08:41:37;;;;;;;26.95;19.10;;;;;;;;;;4997387;28;20095;-82
2022/11/14 08:44:09;;;;;;;26.73;19.55;;;;;;;;;;5006711;28;20372;-77
2022/11/14 08:46:38;;;;;;;28.38;19.83;;;;;;;;;;5014565;28;20079;-74
2022/11/14 08:49:04;;;;;;;26.17;19.25;;;;;;;;;;5025979;28;20085;-77
2022/11/14 08:51:30;;;;;;;29.27;20.83;;;;;;;;;;5019660;28;20025;-78
2022/11/14 08:54:16;;;;;;;27.65;18.85;;;;;;;;;;5020697;28;20033;-82
2022/11/14 08:59:40;;;;;;;30.10;20.52;;;;;;;;;;5015798;28;20030;-82
2022/11/14 09:08:57;;;;;;;26.48;19.02;;;;;;;;;;4897364;29;20029;-86
2022/11/14 09:12:21;;;;;;;;;;;;;;;;;;;;;
2022/11/14 09:14:53;;;;;;;26.77;18.95;;;;;;;;;;4913662;29;20090;-80
2022/11/14 09:17:19;;;;;;;25.58;17.40;;;;;;;;;;5002811;28;20037;-79
2022/11/14 09:19:45;;;;;;;28.08;18.98;;;;;;;;;;5022615;28;20050;-77
2022/11/14 09:22:11;;;;;;;26.80;18.92;;;;;;;;;;5024269;28;20666;-76
2022/11/14 09:24:52;;;;;;;26.73;18.08;;;;;;;;;;5017453;28;20052;-79
2022/11/14 09:33:32;;;;;;;23.83;18.07;;;;;;;;;;4986829;28;20028;-82
2022/11/14 09:36:17;;;;;;;26.98;17.48;;;;;;;;;;5030042;28;20272;-81
2022/11/14 09:38:43;;;;;;;23.02;17.48;;;;;;;;;;5033643;28;20169;-79
2022/11/14 09:41:23;;;;;;;26.08;17.45;;;;;;;;;;5025256;28;20036;-82
2022/11/14 09:44:02;;;;;;;24.70;18.50;;;;;;;;;;5025415;28;20037;-79
2022/11/14 09:46:38;;;;;;;25.10;17.75;;;;;;;;;;5035084;28;20025;-79
2022/11/14 09:49:08;;;;;;;28.35;18.15;;;;;;;;;;5002264;28;20037;-78
2022/11/14 09:51:46;;;;;;;27.38;17.95;;;;;;;;;;5014287;28;20006;-80
2022/11/14 09:54:17;;;;;;;26.20;19.88;;;;;;;;;;5047355;28;20033;-80
2022/11/14 09:57:10;;;;;;;25.80;19.50;;;;;;;;;;5008568;28;20052;-78
2022/11/14 09:59:39;;;;;;;25.58;17.92;;;;;;;;;;5029259;23;20068;-80
2022/11/14 10:02:13;;;;;;;24.27;18.20;;;;;;;;;;5030275;28;20038;-78
2022/11/14 10:04:48;;;;;;;27.42;18.83;;;;;;;;;;5018526;28;20117;-80
2022/11/14 10:07:17;;;;;;;27.98;19.30;;;;;;;;;;5005204;28;20017;-79
2022/11/14 10:09:43;;;;;;;25.50;18.27;;;;;;;;;;5051164;28;20032;-79
2022/11/14 10:12:12;;;;;;;25.30;17.73;;;;;;;;;;5034748;28;20026;-78
2022/11/14 10:14:51;;;;;;;26.70;18.25;;;;;;;;;;5019965;28;20022;-81
2022/11/14 10:17:20;;;;;;;27.23;18.75;;;;;;;;;;5027752;28;20029;-77
2022/11/14 10:20:03;;;;;;;24.67;17.63;;;;;;;;;;5020771;28;20040;-79
2022/11/14 10:22:34;;;;;;;26.33;18.08;;;;;;;;;;5015882;28;20061;-77
2022/11/14 10:25:17;;;;;;;24.95;17.73;;;;;;;;;;5033296;28;20035;-80
2022/11/14 10:35:31;;;;;;;26.00;18.00;;;;;;;;;;5058802;28;20122;-81
2022/11/14 10:38:18;;;;;;;23.80;16.38;;;;;;;;;;5045902;28;20024;-80
2022/11/14 10:40:46;;;;;;;23.40;16.55;;;;;;;;;;5037439;28;20144;-79
2022/11/14 10:43:14;;;;;;;27.80;17.13;;;;;;;;;;5029962;28;20041;-78
2022/11/14 10:45:45;;;;;;;24.83;16.42;;;;;;;;;;5041836;28;20017;-79
2022/11/14 10:48:16;;;;;;;26.23;17.20;;;;;;;;;;5032337;28;20029;-78
2022/11/14 10:50:51;;;;;;;21.75;16.35;;;;;;;;;;5032823;28;20026;-76
2022/11/14 10:53:28;;;;;;;24.90;17.20;;;;;;;;;;5046933;28;20029;-76
2022/11/14 10:55:55;;;;;;;23.23;16.60;;;;;;;;;;5033760;28;20407;-78
2022/11/14 10:58:21;;;;;;;23.38;15.98;;;;;;;;;;5034001;28;20112;-78
2022/11/14 11:00:50;;;;;;;23.45;16.65;;;;;;;;;;5032978;28;20026;-77
2022/11/14 11:03:16;;;;;;;22.75;16.20;;;;;;;;;;5031364;28;20029;-78
2022/11/14 11:05:49;;;;;;;24.25;16.33;;;;;;;;;;5031268;28;20067;-78
2022/11/14 11:11:29;;;;;;;23.38;16.40;;;;;;;;;;5021604;28;20063;-77
2022/11/14 11:13:59;;;;;;;23.63;16.67;;;;;;;;;;5030642;28;20021;-77
2022/11/14 11:16:26;;;;;;;27.08;18.70;;;;;;;;;;5034600;28;20013;-77
2022/11/14 11:18:53;;;;;;;27.90;17.52;;;;;;;;;;5032774;28;20032;-78
2022/11/14 11:21:20;;;;;;;28.15;17.15;;;;;;;;;;5031280;28;20021;-77
2022/11/14 11:23:51;;;;;;;24.85;17.13;;;;;;;;;;5034359;28;20021;-77
2022/11/14 11:26:20;;;;;;;25.40;17.92;;;;;;;;;;5030818;28;20028;-78
2022/11/14 11:29:01;;;;;;;26.70;17.60;;;;;;;;;;5032161;28;20032;-77
2022/11/14 11:31:27;;;;;;;22.42;17.85;;;;;;;;;;5039627;28;20375;-78
2022/11/14 11:33:53;;;;;;;23.73;17.27;;;;;;;;;;5031066;28;20030;-77
2022/11/14 11:36:21;;;;;;;23.48;17.00;;;;;;;;;;5046938;28;20017;-77
2022/11/14 11:38:48;;;;;;;26.50;17.90;;;;;;;;;;5049446;28;20017;-77
2022/11/14 11:41:30;;;;;;;22.55;17.15;;;;;;;;;;5033796;28;20507;-77
2022/11/14 11:43:58;;;;;;;24.45;17.48;;;;;;;;;;5039311;28;20029;-79
2022/11/14 11:46:28;;;;;;;26.05;19.02;;;;;;;;;;5030222;28;20534;-76
2022/11/14 11:48:59;;;;;;;24.65;17.45;;;;;;;;;;5029575;28;20053;-78
2022/11/14 11:51:26;;;;;;;26.75;16.60;;;;;;;;;;5032461;28;20032;-79
2022/11/14 11:54:05;;;;;;;23.40;17.70;;;;;;;;;;5030153;28;20024;-78
2022/11/14 11:56:32;;;;;;;23.10;17.33;;;;;;;;;;5029736;28;20075;-77
2022/11/14 11:59:17;;;;;;;26.77;17.65;;;;;;;;;;5031612;28;20029;-77
2022/11/14 12:01:43;;;;;;;22.70;15.93;;;;;;;;;;5031571;28;20082;-77
2022/11/14 12:04:11;;;;;;;23.38;16.73;;;;;;;;;;5032414;28;20132;-76
2022/11/14 12:06:52;;;;;;;23.13;16.33;;;;;;;;;;5030875;28;20159;-77
2022/11/14 12:09:25;;;;;;;21.63;16.63;;;;;;;;;;5031330;28;20373;-77
2022/11/14 12:11:54;;;;;;;23.10;17.23;;;;;;;;;;5031675;28;20513;-77
2022/11/14 12:14:31;;;;;;;24.58;17.63;;;;;;;;;;5030789;28;20353;-78
2022/11/14 12:17:16;;;;;;;23.35;16.77;;;;;;;;;;5030521;28;20116;-77
2022/11/14 12:19:58;;;;;;;24.65;17.20;;;;;;;;;;5032455;28;20029;-77
2022/11/14 12:22:42;;;;;;;22.58;16.40;;;;;;;;;;5030627;28;20029;-77
2022/11/14 12:25:15;;;;;;;27.10;17.38;;;;;;;;;;5031970;28;20022;-77
2022/11/14 12:28:10;;;;;;;32.17;17.15;;;;;;;;;;5031075;28;20022;-77
2022/11/14 12:30:36;;;;;;;24.70;16.13;;;;;;;;;;5023610;28;20025;-77
2022/11/14 12:33:23;;;;;;;26.92;18.15;;;;;;;;;;5030462;28;20364;-76
2022/11/14 12:35:54;;;;;;;25.20;17.63;;;;;;;;;;5030498;28;20040;-77
2022/11/14 12:38:23;;;;;;;23.23;16.60;;;;;;;;;;5029401;28;20145;-77
2022/11/14 12:40:53;;;;;;;24.55;17.08;;;;;;;;;;5030432;28;20041;-77
2022/11/14 12:43:32;;;;;;;25.65;17.48;;;;;;;;;;5030254;28;20025;-77
2022/11/14 12:46:08;;;;;;;24.33;15.63;;;;;;;;;;5030319;28;20045;-79
2022/11/14 12:48:35;;;;;;;23.58;16.55;;;;;;;;;;5032725;28;20013;-79
2022/11/14 12:51:03;;;;;;;27.23;18.17;;;;;;;;;;5032399;28;20017;-78
2022/11/14 12:53:34;;;;;;;26.42;18.85;;;;;;;;;;5033036;28;20037;-78
2022/11/14 12:56:21;;;;;;;24.08;17.20;;;;;;;;;;5031826;28;20499;-76
2022/11/14 12:58:47;;;;;;;25.20;17.80;;;;;;;;;;5061508;23;20106;-76
2022/11/14 13:01:35;;;;;;;23.65;16.42;;;;;;;;;;5071229;28;20112;-76
2022/11/14 13:04:32;;;;;;;;;;;;;;;;;;;;;
2022/11/14 13:07:20;;;;;;;24.48;16.90;;;;;;;;;;5070985;28;20024;-77
2022/11/14 13:10:04;;;;;;;22.92;16.52;;;;;;;;;;5054900;28;20043;-77
2022/11/14 13:21:46;;;;;;;24.50;17.40;;;;;;;;;;5075421;28;20043;-76
2022/11/14 13:24:23;;;;;;;22.80;16.67;;;;;;;;;;5075163;28;20398;-77
2022/11/14 13:26:59;;;;;;;23.75;17.23;;;;;;;;;;5075038;28;20434;-76
2022/11/14 13:29:46;;;;;;;25.90;17.63;;;;;;;;;;5056189;28;20024;-76
2022/11/14 13:32:35;;;;;;;23.95;18.17;;;;;;;;;;5056838;28;20025;-77
2022/11/14 13:35:05;;;;;;;23.35;16.88;;;;;;;;;;5073030;28;20270;-76
2022/11/14 13:38:03;;;;;;;25.50;17.35;;;;;;;;;;5074776;28;20031;-77
2022/11/14 13:41:02;;;;;;;24.30;17.35;;;;;;;;;;5074866;28;20157;-76
2022/11/14 13:43:50;;;;;;;25.48;17.88;;;;;;;;;;5076060;28;20047;-76
2022/11/14 13:46:43;;;;;;;24.13;18.13;;;;;;;;;;5076398;28;20194;-77
2022/11/14 13:49:30;;;;;;;23.65;17.08;;;;;;;;;;5056125;28;20020;-76
2022/11/14 13:51:59;;;;;;;23.73;17.17;;;;;;;;;;5056198;28;20127;-79
2022/11/14 13:54:51;;;;;;;24.00;16.58;;;;;;;;;;5056578;28;20126;-76
2022/11/14 13:57:23;;;;;;;21.08;15.40;;;;;;;;;;5048941;28;20074;-76
2022/11/14 14:00:13;;;;;;;22.50;16.92;;;;;;;;;;5055592;28;20486;-78
2022/11/14 14:02:48;;;;;;;23.45;16.60;;;;;;;;;;5055963;28;20028;-78
2022/11/14 14:05:33;;;;;;;25.27;16.58;;;;;;;;;;5055900;28;20072;-76
2022/11/14 14:08:02;;;;;;;23.00;16.23;;;;;;;;;;5055737;28;20430;-77
2022/11/14 14:10:46;;;;;;;23.40;17.17;;;;;;;;;;5073971;28;20032;-79
2022/11/14 14:13:12;;;;;;;24.63;16.70;;;;;;;;;;5056104;28;20025;-76
2022/11/14 14:15:53;;;;;;;23.35;16.05;;;;;;;;;;5056236;28;20413;-76
2022/11/14 14:18:35;;;;;;;24.67;18.13;;;;;;;;;;5055656;28;20119;-77
2022/11/14 14:21:05;;;;;;;20.08;15.48;;;;;;;;;;5055683;28;20028;-75
2022/11/14 14:23:36;;;;;;;23.50;17.70;;;;;;;;;;5074539;28;20028;-78
2022/11/14 14:26:09;;;;;;;24.48;17.75;;;;;;;;;;5056397;28;20029;-76
2022/11/14 14:28:52;;;;;;;27.52;17.88;;;;;;;;;;5055249;28;20020;-76
2022/11/14 14:31:24;;;;;;;26.05;19.48;;;;;;;;;;5075007;28;20108;-78
2022/11/14 14:33:51;;;;;;;28.10;18.55;;;;;;;;;;5078145;28;20339;-76
2022/11/14 14:36:37;;;;;;;27.75;18.02;;;;;;;;;;5058641;28;20574;-77
2022/11/14 14:39:20;;;;;;;29.73;20.98;;;;;;;;;;5058036;28;20020;-77
2022/11/14 14:41:55;;;;;;;27.13;19.73;;;;;;;;;;5076863;28;20154;-76
2022/11/14 14:44:33;;;;;;;29.00;20.27;;;;;;;;;;5076371;28;20028;-77
2022/11/14 14:50:16;;;;;;;27.88;19.55;;;;;;;;;;5073599;28;20455;-77
2022/11/14 14:53:00;;;;;;;28.05;20.00;;;;;;;;;;5055395;28;20387;-77
2022/11/14 14:58:56;;;;;;;24.17;18.05;;;;;;;;;;5048938;28;20380;-77
2022/11/14 15:04:30;;;;;;;28.30;20.08;;;;;;;;;;5073542;28;20066;-78
2022/11/14 15:07:08;;;;;;;26.73;19.23;;;;;;;;;;5054597;28;20036;-77
2022/11/14 15:09:53;;;;;;;29.42;20.85;;;;;;;;;;5104956;23;20052;-77
2022/11/14 15:12:54;;;;;;;27.52;19.20;;;;;;;;;;5034258;28;20033;-76
2022/11/14 15:15:27;;;;;;;30.40;20.80;;;;;;;;;;5035822;28;20021;-77
2022/11/14 15:18:03;;;;;;;29.48;21.10;;;;;;;;;;5067730;22;20040;-76
2022/11/14 15:20:35;;;;;;;28.23;20.45;;;;;;;;;;5032818;28;20037;-76
2022/11/14 15:23:16;;;;;;;32.97;22.10;;;;;;;;;;5033013;28;20030;-77
2022/11/14 15:26:00;;;;;;;33.17;22.55;;;;;;;;;;5032943;28;20430;-76
2022/11/14 15:28:30;;;;;;;32.55;21.98;;;;;;;;;;5014435;28;20032;-77